Johnson City, TN

12:22 AM EDT on June 02, 2015 (GMT -0400)
Towne Acres | | Change Station
CLOSE
Current Station
Personal Weather Station
Location: Johnson City, TN
Elevation: 1650 ft
Nearby Weather Stations

Elev 1650 ft 36.34 °N, 82.39 °W | Updated 8 seconds ago

Mostly Cloudy
Mostly Cloudy
64.8 °F
Feels Like 64.8 °F
N
0.0
Wind Variable Wind from East
Gusts 0.0 mph

Today
High -- | Low -- °F
--% Chance of Precip.
Yesterday
High -- | Low -- °F
Precip. -- in
6:12 AM 8:42 PM
Full, 100% visible
Pressure 30.01 in
Visibility 10.0 miles
Clouds Scattered Clouds 5000 ft
Mostly Cloudy 15000 ft
Dew Point 65 °F
Humidity 99%
Rainfall 0.00 in
Snow Depth Not available.
UV 0.0 out of 12
Pollen 4.20 out of 12
Air Quality Not available.
Flu Activity Sporadic
METAR KTRI 020353Z 00000KT 10SM SCT050 BKN150 18/17 A3008 RMK AO2 SLP161 T01780172

More Conditions Fewer Conditions

Pressure 30.01 in
Visibility 10.0 miles
Clouds Scattered Clouds 5000 ft
Mostly Cloudy 15000 ft
Dew Point 65 °F
Humidity 99%
Rainfall 0.00 in
Snow Depth Not available.
UV 0.0 out of 12
Pollen 4.20 out of 12
Air Quality Not available.
Flu Activity Sporadic
METAR KTRI 020353Z 00000KT 10SM SCT050 BKN150 18/17 A3008 RMK AO2 SLP161 T01780172

More Conditions Fewer Conditions

10-Day Weather Forecast

Almanac

Astronomy

Jun. 02, 2015 Rise Set
Actual Time
Civil Twilight
Nautical Twilight
Astronomical Twilight
Moon
Length of Visible Light
Length of Day
Tomorrow will be .
, % of the Moon is Illuminated

Today's Extremes

State Highs State Lows

Community

WunderPhotos

Upload Photos

1,825,905 photos uploaded!

WunderBlogs® & News

Nearby

Air Quality

  Air Quality AQ Index Pollutant
Not available.

Snow Depth

Station Depth Elevation

Earthquake Activity

City Distance Mag. Time & Date
Minimum magnitude displayed is 2.5.

Coastal Water Temperatures

Place Temperature

Stations

Nearby Weather Stations

Station Location Temp. Windchill Dew Point Humidity Wind Precip. Elev Updated Type